createdAt,value
2022-12-26T00:00:38.775Z,10.36
2022-12-26T00:01:38.682Z,10.42
2022-12-26T00:02:38.777Z,10.41
2022-12-26T00:03:38.791Z,10.42
2022-12-26T00:04:50.994Z,10.42
2022-12-26T00:05:38.676Z,10.33
2022-12-26T00:06:38.686Z,10.40
2022-12-26T00:07:38.690Z,10.44
2022-12-26T00:08:38.670Z,10.47
2022-12-26T00:09:38.699Z,10.44
2022-12-26T00:10:38.663Z,10.44
2022-12-26T00:11:38.657Z,10.41
2022-12-26T00:12:38.680Z,10.47
2022-12-26T00:13:41.448Z,10.48
2022-12-26T00:14:38.670Z,10.48
2022-12-26T00:15:38.651Z,10.48
2022-12-26T00:16:38.701Z,10.52
2022-12-26T00:17:38.661Z,10.51
2022-12-26T00:18:38.665Z,10.59
2022-12-26T00:19:38.648Z,10.61
2022-12-26T00:20:38.664Z,10.52
2022-12-26T00:21:38.655Z,10.53
2022-12-26T00:22:38.637Z,10.59
2022-12-26T00:23:38.655Z,10.52
2022-12-26T00:24:38.634Z,10.51
2022-12-26T00:25:38.659Z,10.60
2022-12-26T00:26:38.647Z,10.56
2022-12-26T00:27:38.627Z,10.59
2022-12-26T00:28:38.644Z,10.60
2022-12-26T00:29:38.651Z,10.61
2022-12-26T00:30:38.647Z,10.59
2022-12-26T00:31:38.661Z,10.64
2022-12-26T00:32:38.619Z,10.60
2022-12-26T00:33:38.622Z,10.63
2022-12-26T00:34:38.628Z,10.60
2022-12-26T00:35:38.626Z,10.61
2022-12-26T00:36:38.641Z,10.55
2022-12-26T00:37:38.620Z,10.59
2022-12-26T00:38:38.628Z,10.63
2022-12-26T00:39:38.642Z,10.66
2022-12-26T00:40:38.601Z,10.64
2022-12-26T00:41:38.623Z,10.70
2022-12-26T00:42:38.604Z,10.67
2022-12-26T00:43:38.623Z,10.68
2022-12-26T00:44:38.622Z,10.70
2022-12-26T00:45:38.607Z,10.66
2022-12-26T00:46:38.631Z,10.67
2022-12-26T00:47:38.606Z,10.73
2022-12-26T00:48:38.596Z,10.73
2022-12-26T00:50:12.451Z,10.67
2022-12-26T00:50:38.591Z,10.66
2022-12-26T00:51:38.598Z,10.66
2022-12-26T00:52:38.596Z,10.73
2022-12-26T00:53:38.588Z,10.73
2022-12-26T00:54:38.583Z,10.68
2022-12-26T00:55:38.593Z,10.66
2022-12-26T00:56:38.584Z,10.70
2022-12-26T00:57:38.577Z,10.70
2022-12-26T00:58:38.594Z,10.70
2022-12-26T00:59:38.566Z,10.73
2022-12-26T01:00:38.596Z,10.74
2022-12-26T01:01:38.796Z,10.82
2022-12-26T01:02:38.767Z,10.82
2022-12-26T01:03:38.576Z,10.79
2022-12-26T01:04:38.566Z,10.76
2022-12-26T01:05:38.555Z,10.82
2022-12-26T01:06:38.554Z,10.74
2022-12-26T01:08:19.569Z,10.81
2022-12-26T01:08:38.577Z,10.84
2022-12-26T01:09:38.550Z,10.74
2022-12-26T01:10:38.546Z,10.86
2022-12-26T01:11:38.553Z,10.88
2022-12-26T01:12:38.564Z,10.84
2022-12-26T01:13:38.569Z,10.84
2022-12-26T01:14:38.570Z,10.89
2022-12-26T01:15:38.546Z,10.91
2022-12-26T01:16:38.588Z,10.91
2022-12-26T01:17:38.542Z,10.94
2022-12-26T01:18:38.542Z,10.99
2022-12-26T01:19:38.544Z,10.86
2022-12-26T01:20:38.549Z,11.02
2022-12-26T01:21:38.539Z,10.99
2022-12-26T01:22:38.529Z,10.96
2022-12-26T01:23:38.578Z,11.04
2022-12-26T01:24:38.529Z,11.06
2022-12-26T01:26:15.115Z,10.92
2022-12-26T01:26:38.517Z,11.00
2022-12-26T01:27:38.520Z,10.97
2022-12-26T01:28:38.540Z,10.96
2022-12-26T01:29:38.510Z,10.89
2022-12-26T01:30:38.524Z,10.91
2022-12-26T01:31:38.553Z,10.88
2022-12-26T01:32:38.521Z,10.94
2022-12-26T01:33:38.511Z,10.88
2022-12-26T01:34:38.537Z,10.91
2022-12-26T01:35:38.509Z,10.92
2022-12-26T01:36:38.496Z,10.91
2022-12-26T01:37:38.508Z,10.94
2022-12-26T01:38:38.495Z,11.00
2022-12-26T01:39:38.521Z,10.96
2022-12-26T01:40:38.490Z,11.03
2022-12-26T01:41:38.489Z,11.03
2022-12-26T01:42:38.507Z,10.97
2022-12-26T01:43:38.497Z,10.99
2022-12-26T01:44:38.497Z,11.09
2022-12-26T01:45:38.566Z,11.03
2022-12-26T01:46:38.486Z,11.14
2022-12-26T01:47:38.478Z,11.14
2022-12-26T01:48:38.478Z,11.09
2022-12-26T01:49:38.485Z,11.10
2022-12-26T01:50:38.478Z,11.10
2022-12-26T01:51:38.501Z,11.19
2022-12-26T01:52:38.468Z,11.06
2022-12-26T01:53:38.471Z,11.06
2022-12-26T01:54:42.578Z,11.10
2022-12-26T01:55:38.471Z,11.17
2022-12-26T01:56:38.469Z,11.07
2022-12-26T01:57:38.486Z,11.14
2022-12-26T01:58:38.467Z,11.03
2022-12-26T01:59:38.494Z,11.10
2022-12-26T02:00:38.549Z,11.09
2022-12-26T02:01:38.606Z,11.02
2022-12-26T02:02:38.561Z,11.21
2022-12-26T02:03:38.460Z,11.00
2022-12-26T02:04:38.454Z,11.15
2022-12-26T02:05:38.445Z,11.14
2022-12-26T02:06:38.459Z,11.10
2022-12-26T02:07:38.455Z,11.04
2022-12-26T02:08:38.446Z,11.09
2022-12-26T02:09:38.440Z,11.15
2022-12-26T02:10:38.450Z,11.18
2022-12-26T02:13:10.510Z,11.19
2022-12-26T02:14:10.558Z,11.04
2022-12-26T02:15:10.518Z,11.11
2022-12-26T02:16:10.567Z,11.09
2022-12-26T02:17:10.484Z,11.07
2022-12-26T02:18:10.506Z,11.22
2022-12-26T02:19:10.506Z,11.14
2022-12-26T02:20:10.499Z,11.10
2022-12-26T02:21:10.478Z,11.11
2022-12-26T02:22:10.488Z,11.10
2022-12-26T02:23:10.507Z,11.03
2022-12-26T02:24:10.471Z,11.10
2022-12-26T02:25:10.488Z,11.21
2022-12-26T02:26:10.493Z,11.04
2022-12-26T02:27:10.470Z,11.14
2022-12-26T02:28:10.474Z,11.17
2022-12-26T02:29:10.499Z,11.17
2022-12-26T02:30:10.479Z,11.04
2022-12-26T02:31:10.462Z,11.21
2022-12-26T02:32:10.487Z,11.19
2022-12-26T02:33:10.466Z,11.11
2022-12-26T02:34:10.456Z,11.24
2022-12-26T02:35:10.473Z,11.22
2022-12-26T02:36:10.463Z,11.18
2022-12-26T02:37:10.469Z,11.22
2022-12-26T02:38:10.470Z,11.25
2022-12-26T02:39:43.717Z,11.15
2022-12-26T02:40:10.472Z,11.19
2022-12-26T02:41:10.464Z,11.19
2022-12-26T02:42:10.452Z,11.18
2022-12-26T02:43:10.455Z,11.19
2022-12-26T02:44:10.456Z,11.21
2022-12-26T02:45:10.458Z,11.21
2022-12-26T02:46:10.543Z,11.18
2022-12-26T02:47:10.440Z,11.28
2022-12-26T02:48:10.447Z,11.33
2022-12-26T02:49:10.446Z,11.29
2022-12-26T02:50:10.470Z,11.28
2022-12-26T02:51:10.428Z,11.29
2022-12-26T02:52:10.419Z,11.37
2022-12-26T02:53:10.430Z,11.33
2022-12-26T02:54:10.434Z,11.36
2022-12-26T02:55:10.442Z,11.37
2022-12-26T02:56:10.416Z,11.40
2022-12-26T02:57:10.430Z,11.40
2022-12-26T02:58:10.442Z,11.40
2022-12-26T02:59:10.423Z,11.36
2022-12-26T03:00:10.425Z,11.39
2022-12-26T03:01:10.530Z,11.37
2022-12-26T03:02:10.609Z,11.35
2022-12-26T03:03:10.479Z,11.40
2022-12-26T03:04:10.401Z,11.43
2022-12-26T03:05:10.409Z,11.37
2022-12-26T03:06:10.404Z,11.51
2022-12-26T03:07:10.403Z,11.44
2022-12-26T03:08:10.428Z,11.43
2022-12-26T03:09:10.420Z,11.36
2022-12-26T03:10:10.398Z,11.39
2022-12-26T03:11:10.401Z,11.51
2022-12-26T03:12:10.416Z,11.51
2022-12-26T03:13:10.401Z,11.47
2022-12-26T03:14:10.421Z,11.40
2022-12-26T03:15:10.404Z,11.47
2022-12-26T03:16:10.570Z,11.44
2022-12-26T03:17:10.472Z,11.46
2022-12-26T03:18:10.396Z,11.44
2022-12-26T03:19:10.424Z,11.44
2022-12-26T03:20:10.396Z,11.46
2022-12-26T03:21:10.390Z,11.46
2022-12-26T03:22:10.389Z,11.49
2022-12-26T03:23:10.386Z,11.44
2022-12-26T03:24:10.385Z,11.47
2022-12-26T03:25:10.394Z,11.47
2022-12-26T03:26:10.390Z,11.49
2022-12-26T03:27:10.376Z,11.54
2022-12-26T03:28:10.371Z,11.46
2022-12-26T03:29:14.384Z,11.52
2022-12-26T03:30:10.372Z,11.49
2022-12-26T03:31:10.419Z,11.54
2022-12-26T03:32:10.374Z,11.51
2022-12-26T03:33:10.365Z,11.60
2022-12-26T03:34:10.365Z,11.51
2022-12-26T03:35:10.362Z,11.49
2022-12-26T03:36:10.368Z,11.52
2022-12-26T03:37:10.351Z,11.49
2022-12-26T03:38:10.378Z,11.49
2022-12-26T03:39:10.373Z,11.55
2022-12-26T03:40:10.372Z,11.52
2022-12-26T03:41:10.381Z,11.54
2022-12-26T03:42:10.380Z,11.44
2022-12-26T03:43:10.380Z,11.44
2022-12-26T03:44:10.353Z,11.46
2022-12-26T03:45:10.339Z,11.47
2022-12-26T03:46:10.398Z,11.43
2022-12-26T03:47:10.360Z,11.46
2022-12-26T03:48:10.345Z,11.51
2022-12-26T03:49:10.341Z,11.54
2022-12-26T03:50:10.350Z,11.51
2022-12-26T03:51:10.330Z,11.51
2022-12-26T03:52:10.342Z,11.51
2022-12-26T03:53:10.347Z,11.49
2022-12-26T03:54:10.333Z,11.52
2022-12-26T03:55:10.360Z,11.49
2022-12-26T03:56:10.331Z,11.49
2022-12-26T03:57:10.333Z,11.52
2022-12-26T03:58:10.331Z,11.54
2022-12-26T03:59:10.417Z,11.54
2022-12-26T04:00:10.352Z,11.54
2022-12-26T04:01:10.386Z,11.52
2022-12-26T04:02:10.442Z,11.55
2022-12-26T04:03:10.406Z,11.55
2022-12-26T04:04:10.367Z,11.54
2022-12-26T04:05:10.308Z,11.52
2022-12-26T04:06:10.306Z,11.52
2022-12-26T04:07:10.304Z,11.47
2022-12-26T04:08:16.468Z,11.43
2022-12-26T04:09:10.303Z,11.46
2022-12-26T04:10:10.334Z,11.52
2022-12-26T04:11:10.296Z,11.51
2022-12-26T04:12:10.307Z,11.51
2022-12-26T04:13:10.293Z,11.47
2022-12-26T04:14:10.291Z,11.47
2022-12-26T04:15:10.315Z,11.61
2022-12-26T04:16:10.356Z,11.55
2022-12-26T04:17:10.297Z,11.57
2022-12-26T04:18:10.292Z,11.61
2022-12-26T04:19:10.280Z,11.57
2022-12-26T04:20:10.300Z,11.57
2022-12-26T04:21:10.283Z,11.61
2022-12-26T04:22:10.299Z,11.61
2022-12-26T04:23:10.303Z,11.54
2022-12-26T04:24:10.282Z,11.60
2022-12-26T04:25:10.271Z,11.58
2022-12-26T04:26:10.285Z,11.61
2022-12-26T04:27:10.277Z,11.54
2022-12-26T04:28:10.263Z,11.57
2022-12-26T04:29:10.286Z,11.62
2022-12-26T04:30:10.278Z,11.60
2022-12-26T04:31:10.345Z,11.60
2022-12-26T04:32:10.271Z,11.58
2022-12-26T04:33:10.287Z,11.70
2022-12-26T04:34:10.256Z,11.65
2022-12-26T04:35:10.268Z,11.62
2022-12-26T04:36:10.259Z,11.61
2022-12-26T04:37:10.261Z,11.64
2022-12-26T04:38:10.264Z,11.61
2022-12-26T04:39:10.287Z,11.61
2022-12-26T04:40:19.761Z,11.57
2022-12-26T04:41:10.269Z,11.70
2022-12-26T04:42:10.254Z,11.55
2022-12-26T04:43:49.689Z,11.58
2022-12-26T04:44:10.255Z,11.57
2022-12-26T04:45:10.261Z,11.51
2022-12-26T04:46:10.268Z,11.55
2022-12-26T04:47:10.284Z,11.60
2022-12-26T04:48:10.243Z,11.52
2022-12-26T04:49:10.243Z,11.55
2022-12-26T04:50:10.258Z,11.57
2022-12-26T04:51:10.244Z,11.52
2022-12-26T04:52:10.240Z,11.51
2022-12-26T04:53:10.241Z,11.51
2022-12-26T04:54:10.221Z,11.47
2022-12-26T04:55:10.244Z,11.44
2022-12-26T04:56:10.242Z,11.49
2022-12-26T04:57:10.231Z,11.49
2022-12-26T04:58:10.238Z,11.47
2022-12-26T04:59:10.249Z,11.51
2022-12-26T05:00:10.256Z,11.52
2022-12-26T05:01:10.342Z,11.44
2022-12-26T05:02:10.312Z,11.42
2022-12-26T05:03:14.560Z,11.47
2022-12-26T05:04:10.205Z,11.47
2022-12-26T05:05:10.218Z,11.43
2022-12-26T05:06:10.242Z,11.44
2022-12-26T05:07:10.233Z,11.47
2022-12-26T05:08:10.223Z,11.47
2022-12-26T05:09:10.229Z,11.46
2022-12-26T05:10:10.207Z,11.52
2022-12-26T05:11:10.243Z,11.52
2022-12-26T05:12:10.207Z,11.57
2022-12-26T05:13:10.191Z,11.54
2022-12-26T05:14:10.193Z,11.51
2022-12-26T05:15:10.203Z,11.44
2022-12-26T05:16:10.267Z,11.52
2022-12-26T05:17:10.201Z,11.55
2022-12-26T05:18:10.202Z,11.58
2022-12-26T05:19:10.210Z,11.54
2022-12-26T05:20:10.214Z,11.62
2022-12-26T05:21:10.221Z,11.58
2022-12-26T05:22:10.193Z,11.64
2022-12-26T05:23:10.213Z,11.55
2022-12-26T05:24:10.185Z,11.55
2022-12-26T05:25:10.177Z,11.52
2022-12-26T05:26:10.191Z,11.64
2022-12-26T05:27:10.184Z,11.64
2022-12-26T05:28:10.180Z,11.64
2022-12-26T05:29:10.193Z,11.62
2022-12-26T05:30:10.178Z,11.67
2022-12-26T05:31:10.204Z,11.62
2022-12-26T05:32:10.183Z,11.65
2022-12-26T05:33:10.175Z,11.64
2022-12-26T05:34:10.177Z,11.62
2022-12-26T05:35:10.180Z,11.64
2022-12-26T05:36:10.174Z,11.64
2022-12-26T05:37:10.175Z,11.62
2022-12-26T05:38:10.182Z,11.61
2022-12-26T05:39:10.193Z,11.65
2022-12-26T05:40:10.165Z,11.65
2022-12-26T05:41:10.149Z,11.65
2022-12-26T05:42:10.159Z,11.70
2022-12-26T05:43:10.170Z,11.72
2022-12-26T05:44:10.175Z,11.72
2022-12-26T05:45:10.162Z,11.67
2022-12-26T05:46:10.248Z,11.73
2022-12-26T05:47:10.159Z,11.69
2022-12-26T05:48:10.149Z,11.73
2022-12-26T05:49:10.147Z,11.72
2022-12-26T05:50:10.152Z,11.73
2022-12-26T05:51:10.158Z,11.69
2022-12-26T05:52:10.154Z,11.76
2022-12-26T05:53:10.160Z,11.65
2022-12-26T05:54:10.150Z,11.72
2022-12-26T05:55:10.171Z,11.70
2022-12-26T05:56:10.145Z,11.78
2022-12-26T05:57:10.127Z,11.76
2022-12-26T05:58:10.128Z,11.67
2022-12-26T05:59:10.126Z,11.73
2022-12-26T06:00:10.150Z,11.76
2022-12-26T06:01:10.297Z,11.75
2022-12-26T06:02:10.224Z,11.80
2022-12-26T06:03:10.205Z,11.69
2022-12-26T06:04:10.134Z,11.69
2022-12-26T06:05:10.120Z,11.70
2022-12-26T06:06:10.117Z,11.70
2022-12-26T06:07:10.161Z,11.78
2022-12-26T06:08:10.110Z,11.69
2022-12-26T06:09:10.109Z,11.65
2022-12-26T06:10:10.113Z,11.67
2022-12-26T06:11:10.166Z,11.70
2022-12-26T06:12:10.136Z,11.67
2022-12-26T06:13:10.132Z,11.67
2022-12-26T06:14:10.133Z,11.69
2022-12-26T06:15:10.117Z,11.65
2022-12-26T06:16:10.148Z,11.62
2022-12-26T06:17:10.128Z,11.65
2022-12-26T06:18:10.130Z,11.62
2022-12-26T06:19:10.110Z,11.65
2022-12-26T06:20:10.111Z,11.65
2022-12-26T06:21:10.151Z,11.60
2022-12-26T06:22:10.123Z,11.62
2022-12-26T06:23:10.115Z,11.60
2022-12-26T06:24:10.136Z,11.60
2022-12-26T06:25:10.093Z,11.61
2022-12-26T06:26:10.399Z,11.61
2022-12-26T06:27:10.121Z,11.67
2022-12-26T06:28:10.154Z,11.61
2022-12-26T06:29:10.123Z,11.61
2022-12-26T06:30:10.118Z,11.60
2022-12-26T06:31:10.174Z,11.60
2022-12-26T06:32:10.080Z,11.58
2022-12-26T06:33:10.128Z,11.62
2022-12-26T06:34:12.781Z,11.60
2022-12-26T06:35:17.655Z,11.64
2022-12-26T06:36:10.082Z,11.60
2022-12-26T06:37:10.733Z,11.64
2022-12-26T06:38:10.078Z,11.54
2022-12-26T06:39:10.066Z,11.60
2022-12-26T06:40:10.065Z,11.62
2022-12-26T06:41:10.132Z,11.57
2022-12-26T06:42:10.058Z,11.60
2022-12-26T06:43:10.078Z,11.65
2022-12-26T06:44:14.525Z,11.65
2022-12-26T06:45:10.065Z,11.62
2022-12-26T06:46:10.063Z,11.64
2022-12-26T06:47:10.173Z,11.64
2022-12-26T06:48:10.050Z,11.55
2022-12-26T06:49:10.066Z,11.62
2022-12-26T06:50:10.075Z,11.60
2022-12-26T06:51:10.110Z,11.57
2022-12-26T06:52:10.084Z,11.55
2022-12-26T06:53:10.051Z,11.60
2022-12-26T06:54:10.064Z,11.54
2022-12-26T06:55:10.079Z,11.55
2022-12-26T06:56:10.066Z,11.47
2022-12-26T06:57:10.053Z,11.47
2022-12-26T06:58:10.041Z,11.51
2022-12-26T06:59:10.064Z,11.44
2022-12-26T07:00:10.069Z,11.47
2022-12-26T07:01:10.299Z,11.54
2022-12-26T07:02:10.220Z,11.47
2022-12-26T07:03:10.117Z,11.44
2022-12-26T07:04:10.766Z,11.54
2022-12-26T07:05:10.061Z,11.44
2022-12-26T07:06:10.022Z,11.54
2022-12-26T07:07:10.065Z,11.55
2022-12-26T07:09:43.085Z,11.51
2022-12-26T07:10:43.101Z,11.47
2022-12-26T07:11:43.077Z,11.55
2022-12-26T07:12:43.086Z,11.47
2022-12-26T07:13:43.904Z,11.52
2022-12-26T07:14:59.711Z,11.51
2022-12-26T07:15:43.167Z,11.55
2022-12-26T07:18:17.292Z,11.51
2022-12-26T07:19:16.320Z,11.47
2022-12-26T07:20:16.180Z,11.55
2022-12-26T07:21:17.187Z,11.52
2022-12-26T07:22:16.138Z,11.58
2022-12-26T07:23:16.136Z,11.52
2022-12-26T07:24:16.123Z,11.51
2022-12-26T07:25:16.065Z,11.57
2022-12-26T07:26:16.072Z,11.44
2022-12-26T07:27:16.081Z,11.61
2022-12-26T07:28:16.066Z,11.52
2022-12-26T07:29:16.079Z,11.49
2022-12-26T07:30:16.275Z,11.51
2022-12-26T07:31:16.127Z,11.51
2022-12-26T07:32:16.224Z,11.46
2022-12-26T07:33:17.233Z,11.51
2022-12-26T07:34:16.079Z,11.49
2022-12-26T07:35:16.727Z,11.54
2022-12-26T07:36:17.742Z,11.58
2022-12-26T07:37:16.064Z,11.51
2022-12-26T07:38:16.042Z,11.58
2022-12-26T07:39:16.061Z,11.57
2022-12-26T07:40:16.040Z,11.49
2022-12-26T07:41:16.037Z,11.49
2022-12-26T07:42:16.055Z,11.55
2022-12-26T07:43:16.193Z,11.60
2022-12-26T07:44:16.125Z,11.46
2022-12-26T07:45:16.038Z,11.52
2022-12-26T07:46:17.062Z,11.52
2022-12-26T07:47:16.045Z,11.51
2022-12-26T07:48:16.032Z,11.60
2022-12-26T07:49:16.098Z,11.64
2022-12-26T07:50:16.038Z,11.61
2022-12-26T07:51:16.029Z,11.61
2022-12-26T07:52:16.036Z,11.57
2022-12-26T07:53:16.065Z,11.60
2022-12-26T07:54:16.072Z,11.60
2022-12-26T07:55:16.054Z,11.60
2022-12-26T07:56:16.034Z,11.61
2022-12-26T07:57:47.022Z,11.55
2022-12-26T07:58:16.016Z,11.61
2022-12-26T07:59:16.205Z,11.65
2022-12-26T08:00:16.029Z,11.54
2022-12-26T08:01:16.273Z,11.62
2022-12-26T08:02:16.211Z,11.55
2022-12-26T08:03:16.129Z,11.60
2022-12-26T08:04:16.724Z,11.60
2022-12-26T08:05:19.734Z,11.60
2022-12-26T08:06:16.130Z,11.58
2022-12-26T08:07:16.725Z,11.55
2022-12-26T08:08:16.777Z,11.65
2022-12-26T08:09:16.146Z,11.69
2022-12-26T08:10:16.003Z,11.62
2022-12-26T08:11:16.001Z,11.69
2022-12-26T08:12:16.039Z,11.67
2022-12-26T08:13:16.024Z,11.73
2022-12-26T08:14:16.009Z,11.69
2022-12-26T08:15:16.001Z,11.70
2022-12-26T08:16:16.152Z,11.67
2022-12-26T08:17:16.161Z,11.67
2022-12-26T08:18:15.999Z,11.78
2022-12-26T08:19:15.998Z,11.64
2022-12-26T08:20:15.984Z,11.75
2022-12-26T08:21:15.996Z,11.72
2022-12-26T08:22:16.001Z,11.73
2022-12-26T08:23:15.990Z,11.80
2022-12-26T08:24:16.021Z,11.73
2022-12-26T08:25:18.373Z,11.73
2022-12-26T08:26:15.971Z,11.76
2022-12-26T08:27:15.986Z,11.75
2022-12-26T08:28:15.989Z,11.78
2022-12-26T08:29:15.979Z,11.88
2022-12-26T08:30:15.967Z,11.82
2022-12-26T08:31:16.000Z,11.80
2022-12-26T08:32:15.983Z,11.82
2022-12-26T08:33:15.980Z,11.85
2022-12-26T08:34:15.979Z,11.90
2022-12-26T08:35:15.974Z,11.94
2022-12-26T08:36:15.962Z,11.91
2022-12-26T08:37:15.983Z,11.95
2022-12-26T08:38:16.207Z,11.88
2022-12-26T08:39:15.993Z,11.88
2022-12-26T08:40:26.757Z,11.88
2022-12-26T08:41:16.764Z,11.83
2022-12-26T08:42:16.040Z,11.86
2022-12-26T08:45:14.258Z,11.85
2022-12-26T08:46:14.410Z,11.79
2022-12-26T08:47:14.257Z,11.86
2022-12-26T08:48:14.286Z,11.82
2022-12-26T08:49:14.251Z,11.85
2022-12-26T08:50:14.239Z,11.79
2022-12-26T08:51:14.319Z,11.75
2022-12-26T08:52:14.222Z,11.72
2022-12-26T08:53:14.258Z,11.83
2022-12-26T08:54:14.234Z,11.91
2022-12-26T08:55:14.240Z,11.83
2022-12-26T08:56:14.237Z,11.88
2022-12-26T08:57:14.246Z,11.88
2022-12-26T08:58:14.246Z,11.82
2022-12-26T08:59:14.241Z,11.88
2022-12-26T09:00:14.259Z,11.83
2022-12-26T09:01:14.310Z,11.82
2022-12-26T09:02:14.349Z,11.75
2022-12-26T09:03:14.304Z,11.73
2022-12-26T09:04:14.242Z,11.86
2022-12-26T09:05:14.218Z,11.76
2022-12-26T09:06:14.244Z,11.73
2022-12-26T09:07:14.216Z,11.80
2022-12-26T09:08:14.246Z,11.73
2022-12-26T09:09:14.221Z,11.76
2022-12-26T09:10:14.226Z,11.83
2022-12-26T09:11:14.225Z,11.78
2022-12-26T09:12:14.207Z,11.80
2022-12-26T09:13:14.218Z,11.76
2022-12-26T09:14:14.245Z,11.80
2022-12-26T09:15:14.216Z,11.76
2022-12-26T09:16:14.215Z,11.78
2022-12-26T09:17:14.243Z,11.78
2022-12-26T09:18:14.213Z,11.75
2022-12-26T09:19:14.223Z,11.69
2022-12-26T09:20:14.225Z,11.79
2022-12-26T09:21:14.203Z,11.76
2022-12-26T09:22:14.245Z,11.83
2022-12-26T09:23:14.192Z,11.88
2022-12-26T09:24:14.241Z,11.85
2022-12-26T09:25:14.187Z,11.82
2022-12-26T09:26:14.186Z,11.85
2022-12-26T09:27:14.182Z,11.88
2022-12-26T09:28:14.192Z,11.86
2022-12-26T09:29:14.202Z,11.85
2022-12-26T09:30:14.206Z,11.86
2022-12-26T09:31:14.239Z,11.82
2022-12-26T09:32:14.202Z,11.90
2022-12-26T09:33:14.191Z,11.85
2022-12-26T09:34:14.197Z,11.86
2022-12-26T09:35:14.185Z,11.96
2022-12-26T09:36:15.126Z,11.99
2022-12-26T09:37:14.186Z,11.86
2022-12-26T09:38:14.192Z,11.88
2022-12-26T09:39:14.203Z,11.88
2022-12-26T09:40:14.169Z,11.86
2022-12-26T09:41:14.179Z,11.86
2022-12-26T09:42:14.170Z,11.83
2022-12-26T09:43:14.169Z,11.80
2022-12-26T09:44:14.167Z,11.95
2022-12-26T09:45:14.191Z,11.96
2022-12-26T09:46:14.231Z,12.01
2022-12-26T09:47:14.170Z,11.90
2022-12-26T09:48:14.155Z,12.02
2022-12-26T09:49:14.168Z,12.01
2022-12-26T09:50:14.192Z,11.98
2022-12-26T09:51:14.168Z,12.01
2022-12-26T09:52:14.162Z,12.10
2022-12-26T09:53:14.145Z,12.12
2022-12-26T09:54:14.146Z,12.19
2022-12-26T09:55:14.148Z,12.14
2022-12-26T09:56:53.151Z,12.28
2022-12-26T09:57:15.202Z,12.21
2022-12-26T09:58:14.156Z,12.21
2022-12-26T09:59:14.154Z,12.24
2022-12-26T10:00:14.142Z,12.23
2022-12-26T10:01:14.309Z,12.17
2022-12-26T10:02:14.291Z,12.14
2022-12-26T10:03:14.154Z,12.14
2022-12-26T10:04:14.246Z,12.24
2022-12-26T10:05:14.142Z,12.19
2022-12-26T10:06:14.143Z,12.23
2022-12-26T10:07:14.176Z,12.24
2022-12-26T10:08:14.145Z,12.20
2022-12-26T10:09:14.139Z,12.24
2022-12-26T10:10:14.158Z,12.23
2022-12-26T10:11:14.125Z,12.32
2022-12-26T10:12:14.133Z,12.23
2022-12-26T10:13:14.129Z,12.29
2022-12-26T10:14:19.799Z,12.32
2022-12-26T10:15:14.139Z,12.21
2022-12-26T10:16:14.259Z,12.27
2022-12-26T10:17:14.127Z,12.32
2022-12-26T10:18:14.165Z,12.34
2022-12-26T10:19:14.115Z,12.32
2022-12-26T10:20:14.115Z,12.38
2022-12-26T10:21:14.116Z,12.39
2022-12-26T10:22:14.121Z,12.47
2022-12-26T10:23:14.117Z,12.37
2022-12-26T10:24:14.150Z,12.38
2022-12-26T10:25:14.120Z,12.41
2022-12-26T10:26:14.139Z,12.38
2022-12-26T10:27:14.122Z,12.34
2022-12-26T10:28:14.122Z,12.34
2022-12-26T10:29:14.264Z,12.32
2022-12-26T10:30:14.122Z,12.35
2022-12-26T10:31:14.169Z,12.38
2022-12-26T10:32:14.111Z,12.35
2022-12-26T10:33:14.101Z,12.37
2022-12-26T10:34:14.100Z,12.38
2022-12-26T10:35:14.128Z,12.41
2022-12-26T10:36:14.113Z,12.34
2022-12-26T10:37:14.116Z,12.35
2022-12-26T10:38:14.098Z,12.41
2022-12-26T10:39:14.120Z,12.35
2022-12-26T10:41:53.407Z,12.37
2022-12-26T10:42:53.386Z,12.39
2022-12-26T10:43:53.378Z,12.41
2022-12-26T10:44:53.384Z,12.41
2022-12-26T10:45:53.395Z,12.37
2022-12-26T10:46:53.393Z,12.35
2022-12-26T10:47:53.400Z,12.32
2022-12-26T10:48:53.386Z,12.34
2022-12-26T10:49:53.386Z,12.29
2022-12-26T10:50:53.434Z,12.31
2022-12-26T10:51:53.395Z,12.28
2022-12-26T10:52:53.377Z,12.32
2022-12-26T10:53:53.380Z,12.32
2022-12-26T10:55:28.650Z,12.35
2022-12-26T10:55:53.365Z,12.35
2022-12-26T10:56:53.364Z,12.34
2022-12-26T10:57:53.381Z,12.21
2022-12-26T10:58:53.364Z,12.29
2022-12-26T10:59:53.397Z,12.34
2022-12-26T11:00:53.386Z,12.24
2022-12-26T11:01:53.498Z,12.31
2022-12-26T11:02:53.703Z,12.24
2022-12-26T11:03:53.414Z,12.27
2022-12-26T11:05:13.570Z,12.32
2022-12-26T11:06:09.636Z,12.28
2022-12-26T11:06:53.367Z,12.37
2022-12-26T11:07:53.389Z,12.31
2022-12-26T11:08:53.351Z,12.27
2022-12-26T11:09:53.352Z,12.32
2022-12-26T11:10:53.376Z,12.29
2022-12-26T11:11:53.359Z,12.27
2022-12-26T11:12:53.361Z,12.28
2022-12-26T11:13:57.736Z,12.37
2022-12-26T11:14:53.351Z,12.29
2022-12-26T11:15:53.393Z,12.32
2022-12-26T11:16:53.352Z,12.29
2022-12-26T11:17:53.358Z,12.19
2022-12-26T11:18:53.359Z,12.27
2022-12-26T11:19:53.354Z,12.34
2022-12-26T11:20:53.375Z,12.23
2022-12-26T11:21:53.355Z,12.21
2022-12-26T11:22:53.346Z,12.21
2022-12-26T11:23:53.349Z,12.28
2022-12-26T11:24:53.346Z,12.21
2022-12-26T11:25:53.377Z,12.29
2022-12-26T11:26:53.346Z,12.24
2022-12-26T11:27:53.336Z,12.21
2022-12-26T11:28:53.342Z,12.20
2022-12-26T11:29:53.603Z,12.20
2022-12-26T11:30:53.356Z,12.27
2022-12-26T11:31:53.357Z,12.21
2022-12-26T11:32:53.360Z,12.19
2022-12-26T11:33:53.329Z,12.13
2022-12-26T11:34:53.329Z,12.17
2022-12-26T11:35:53.335Z,12.14
2022-12-26T11:36:53.344Z,12.20
2022-12-26T11:37:53.340Z,12.16
2022-12-26T11:38:53.340Z,12.14
2022-12-26T11:39:53.320Z,12.19
2022-12-26T11:40:53.336Z,12.16
2022-12-26T11:41:53.366Z,12.12
2022-12-26T11:42:53.324Z,12.20
2022-12-26T11:43:53.348Z,12.16
2022-12-26T11:44:53.324Z,12.17
2022-12-26T11:45:53.331Z,12.16
2022-12-26T11:46:53.364Z,12.17
2022-12-26T11:47:53.322Z,12.20
2022-12-26T11:48:53.324Z,12.17
2022-12-26T11:49:53.313Z,12.21
2022-12-26T11:50:53.316Z,12.20
2022-12-26T11:51:58.743Z,12.17
2022-12-26T11:52:53.335Z,12.13
2022-12-26T11:53:53.317Z,12.07
2022-12-26T11:54:53.312Z,12.12
2022-12-26T11:55:53.311Z,12.07
2022-12-26T11:56:53.300Z,12.14
2022-12-26T11:57:56.931Z,12.16
2022-12-26T11:58:53.342Z,12.07
2022-12-26T11:59:53.298Z,12.09
2022-12-26T12:00:53.304Z,12.02
2022-12-26T12:01:53.457Z,12.04
2022-12-26T12:02:53.363Z,12.04
2022-12-26T12:03:53.375Z,12.16
2022-12-26T12:04:53.303Z,12.09
2022-12-26T12:05:53.304Z,12.16
2022-12-26T12:06:53.290Z,12.16
2022-12-26T12:07:53.310Z,12.14
2022-12-26T12:08:53.304Z,12.19
2022-12-26T12:09:53.295Z,12.12
2022-12-26T12:10:53.313Z,12.16
2022-12-26T12:11:53.291Z,12.19
2022-12-26T12:12:53.303Z,12.10
2022-12-26T12:13:53.296Z,12.17
2022-12-26T12:14:54.985Z,12.09
2022-12-26T12:15:53.287Z,12.19
2022-12-26T12:16:53.330Z,12.14
2022-12-26T12:17:53.305Z,12.07
2022-12-26T12:18:53.297Z,12.12
2022-12-26T12:19:53.290Z,12.21
2022-12-26T12:20:53.309Z,12.10
2022-12-26T12:21:53.274Z,12.14
2022-12-26T12:22:53.299Z,12.19
2022-12-26T12:23:53.283Z,12.19
2022-12-26T12:24:53.278Z,12.09
2022-12-26T12:25:53.283Z,12.09
2022-12-26T12:26:58.772Z,12.05
2022-12-26T12:27:53.277Z,12.07
2022-12-26T12:28:53.297Z,12.14
2022-12-26T12:29:54.052Z,12.05
2022-12-26T12:30:53.276Z,11.99
2022-12-26T12:31:53.320Z,12.09
2022-12-26T12:32:57.079Z,12.10
2022-12-26T12:33:53.278Z,12.04
2022-12-26T12:34:53.293Z,12.01
2022-12-26T12:35:53.287Z,11.91
2022-12-26T12:36:53.270Z,11.99
2022-12-26T12:37:53.293Z,11.95
2022-12-26T12:38:56.594Z,12.02
2022-12-26T12:39:53.352Z,12.01
2022-12-26T12:40:53.272Z,11.98
2022-12-26T12:41:53.325Z,11.96
2022-12-26T12:42:53.256Z,11.94
2022-12-26T12:43:53.247Z,11.88
2022-12-26T12:44:56.521Z,11.96
2022-12-26T12:45:53.295Z,11.98
2022-12-26T12:46:53.275Z,12.02
2022-12-26T12:47:53.276Z,11.98
2022-12-26T12:48:53.253Z,11.98
2022-12-26T12:49:53.245Z,11.83
2022-12-26T12:50:56.471Z,11.91
2022-12-26T12:51:53.246Z,11.90
2022-12-26T12:52:54.181Z,12.01
2022-12-26T12:53:53.267Z,11.99
2022-12-26T12:54:53.252Z,12.05
2022-12-26T12:55:53.257Z,11.95
2022-12-26T12:56:53.268Z,12.01
2022-12-26T12:57:53.260Z,11.96
2022-12-26T12:58:53.242Z,12.01
2022-12-26T12:59:53.244Z,11.94
2022-12-26T13:00:53.369Z,11.83